sensor_id;sensor_type;location;lat;lon;timestamp;pressure;altitude;pressure_sealevel;temperature;humidity
70200;BME280;57587;55.688;37.600;2023-01-25T00:00:29;101036.03;;;2.26;57.01
70200;BME280;57587;55.688;37.600;2023-01-25T00:02:56;101038.09;;;2.21;57.09
70200;BME280;57587;55.688;37.600;2023-01-25T00:05:23;101034.22;;;2.13;56.44
70200;BME280;57587;55.688;37.600;2023-01-25T00:07:51;101031.50;;;2.14;57.36
70200;BME280;57587;55.688;37.600;2023-01-25T00:10:18;101027.34;;;2.24;57.02
70200;BME280;57587;55.688;37.600;2023-01-25T00:12:45;101031.84;;;2.22;56.59
70200;BME280;57587;55.688;37.600;2023-01-25T00:15:13;101029.22;;;2.22;57.21
70200;BME280;57587;55.688;37.600;2023-01-25T00:17:40;101023.19;;;2.20;56.63
70200;BME280;57587;55.688;37.600;2023-01-25T00:20:08;101029.22;;;2.22;56.33
70200;BME280;57587;55.688;37.600;2023-01-25T00:22:35;101026.69;;;2.21;56.22
70200;BME280;57587;55.688;37.600;2023-01-25T00:25:02;101028.09;;;2.26;56.29
70200;BME280;57587;55.688;37.600;2023-01-25T00:27:29;101024.00;;;2.35;56.04
70200;BME280;57587;55.688;37.600;2023-01-25T00:29:57;101018.66;;;2.37;55.82
70200;BME280;57587;55.688;37.600;2023-01-25T00:32:32;101020.44;;;2.36;55.96
70200;BME280;57587;55.688;37.600;2023-01-25T00:35:04;101016.97;;;2.36;56.03
70200;BME280;57587;55.688;37.600;2023-01-25T00:37:38;101011.00;;;2.32;55.08
70200;BME280;57587;55.688;37.600;2023-01-25T00:40:06;101004.69;;;2.35;55.08
70200;BME280;57587;55.688;37.600;2023-01-25T00:42:33;100998.47;;;2.36;55.51
70200;BME280;57587;55.688;37.600;2023-01-25T00:45:00;100998.84;;;2.29;55.90
70200;BME280;57587;55.688;37.600;2023-01-25T00:47:30;101006.66;;;2.31;55.96
70200;BME280;57587;55.688;37.600;2023-01-25T00:49:57;100998.66;;;2.33;56.34
70200;BME280;57587;55.688;37.600;2023-01-25T00:52:24;100990.56;;;2.21;56.34
70200;BME280;57587;55.688;37.600;2023-01-25T00:54:51;100990.94;;;2.29;56.04
70200;BME280;57587;55.688;37.600;2023-01-25T00:57:18;100988.28;;;2.29;56.34
70200;BME280;57587;55.688;37.600;2023-01-25T00:59:45;100981.28;;;2.28;56.22
70200;BME280;57587;55.688;37.600;2023-01-25T01:02:13;100988.84;;;2.35;56.15
70200;BME280;57587;55.688;37.600;2023-01-25T01:04:41;100984.31;;;2.37;55.55
70200;BME280;57587;55.688;37.600;2023-01-25T01:07:11;100982.44;;;2.39;55.75
70200;BME280;57587;55.688;37.600;2023-01-25T01:09:38;100974.22;;;2.29;55.89
70200;BME280;57587;55.688;37.600;2023-01-25T01:12:05;100982.81;;;2.33;55.81
70200;BME280;57587;55.688;37.600;2023-01-25T01:14:32;100981.75;;;2.35;56.31
70200;BME280;57587;55.688;37.600;2023-01-25T01:16:59;100973.56;;;2.40;55.87
70200;BME280;57587;55.688;37.600;2023-01-25T01:19:26;100969.97;;;2.41;55.21
70200;BME280;57587;55.688;37.600;2023-01-25T01:21:54;100966.66;;;2.37;55.51
70200;BME280;57587;55.688;37.600;2023-01-25T01:24:21;100965.50;;;2.41;55.29
70200;BME280;57587;55.688;37.600;2023-01-25T01:26:48;100963.19;;;2.37;55.51
70200;BME280;57587;55.688;37.600;2023-01-25T01:29:15;100968.34;;;2.38;55.66
70200;BME280;57587;55.688;37.600;2023-01-25T01:31:43;100975.34;;;2.39;55.41
70200;BME280;57587;55.688;37.600;2023-01-25T01:34:16;100970.16;;;2.38;55.51
70200;BME280;57587;55.688;37.600;2023-01-25T01:36:44;100957.69;;;2.40;55.06
70200;BME280;57587;55.688;37.600;2023-01-25T01:39:11;100955.81;;;2.42;55.21
70200;BME280;57587;55.688;37.600;2023-01-25T01:41:38;100953.38;;;2.39;55.32
70200;BME280;57587;55.688;37.600;2023-01-25T01:44:19;100949.22;;;2.35;55.10
70200;BME280;57587;55.688;37.600;2023-01-25T01:46:55;100946.28;;;2.39;55.58
70200;BME280;57587;55.688;37.600;2023-01-25T01:49:30;100947.91;;;2.42;55.62
70200;BME280;57587;55.688;37.600;2023-01-25T01:52:15;100945.44;;;2.39;54.61
70200;BME280;57587;55.688;37.600;2023-01-25T01:55:05;100939.28;;;2.38;55.69
70200;BME280;57587;55.688;37.600;2023-01-25T01:57:38;100938.25;;;2.41;55.46
70200;BME280;57587;55.688;37.600;2023-01-25T02:00:13;100930.06;;;2.45;55.10
70200;BME280;57587;55.688;37.600;2023-01-25T02:02:44;100936.19;;;2.46;55.20
70200;BME280;57587;55.688;37.600;2023-01-25T02:05:23;100940.50;;;2.47;55.31
70200;BME280;57587;55.688;37.600;2023-01-25T02:07:52;100936.25;;;2.44;55.68
70200;BME280;57587;55.688;37.600;2023-01-25T02:10:23;100921.09;;;2.48;55.46
70200;BME280;57587;55.688;37.600;2023-01-25T02:12:55;100931.66;;;2.48;55.58
70200;BME280;57587;55.688;37.600;2023-01-25T02:15:25;100929.84;;;2.48;55.62
70200;BME280;57587;55.688;37.600;2023-01-25T02:17:54;100925.16;;;2.39;56.31
70200;BME280;57587;55.688;37.600;2023-01-25T02:20:37;100942.22;;;2.48;56.12
70200;BME280;57587;55.688;37.600;2023-01-25T02:26:03;100942.41;;;2.45;56.37
70200;BME280;57587;55.688;37.600;2023-01-25T02:28:54;100947.50;;;2.48;56.63
70200;BME280;57587;55.688;37.600;2023-01-25T02:31:23;100930.06;;;2.45;56.81
70200;BME280;57587;55.688;37.600;2023-01-25T02:33:51;100932.97;;;2.41;56.79
70200;BME280;57587;55.688;37.600;2023-01-25T02:36:30;100932.31;;;2.37;56.67
70200;BME280;57587;55.688;37.600;2023-01-25T02:39:03;100940.56;;;2.33;57.08
70200;BME280;57587;55.688;37.600;2023-01-25T02:41:34;100942.44;;;2.30;56.85
70200;BME280;57587;55.688;37.600;2023-01-25T02:44:13;100944.88;;;2.34;57.22
70200;BME280;57587;55.688;37.600;2023-01-25T02:46:42;100932.72;;;2.31;57.70
70200;BME280;57587;55.688;37.600;2023-01-25T02:49:11;100948.28;;;2.36;57.21
70200;BME280;57587;55.688;37.600;2023-01-25T02:51:42;100939.50;;;2.35;57.25
70200;BME280;57587;55.688;37.600;2023-01-25T02:54:12;100950.75;;;2.39;57.34
70200;BME280;57587;55.688;37.600;2023-01-25T02:56:39;100948.63;;;2.44;57.60
70200;BME280;57587;55.688;37.600;2023-01-25T02:59:08;100953.91;;;2.44;57.36
70200;BME280;57587;55.688;37.600;2023-01-25T03:01:38;100950.53;;;2.42;57.50
70200;BME280;57587;55.688;37.600;2023-01-25T03:04:06;100942.63;;;2.42;57.55
70200;BME280;57587;55.688;37.600;2023-01-25T03:06:34;100950.94;;;2.36;57.23
70200;BME280;57587;55.688;37.600;2023-01-25T03:09:03;100937.91;;;2.33;57.59
70200;BME280;57587;55.688;37.600;2023-01-25T03:11:31;100940.44;;;2.34;57.71
70200;BME280;57587;55.688;37.600;2023-01-25T03:13:59;100934.00;;;2.38;57.53
70200;BME280;57587;55.688;37.600;2023-01-25T03:16:29;100945.78;;;2.47;57.41
70200;BME280;57587;55.688;37.600;2023-01-25T03:18:57;100931.75;;;2.46;57.29
70200;BME280;57587;55.688;37.600;2023-01-25T03:21:24;100925.22;;;2.52;58.32
70200;BME280;57587;55.688;37.600;2023-01-25T03:23:57;100920.69;;;2.54;57.15
70200;BME280;57587;55.688;37.600;2023-01-25T03:26:28;100913.69;;;2.53;57.11
70200;BME280;57587;55.688;37.600;2023-01-25T03:29:07;100927.09;;;2.50;57.23
70200;BME280;57587;55.688;37.600;2023-01-25T03:31:37;100923.53;;;2.51;57.13
70200;BME280;57587;55.688;37.600;2023-01-25T03:34:05;100914.19;;;2.45;56.81
70200;BME280;57587;55.688;37.600;2023-01-25T03:36:37;100919.75;;;2.41;56.98
70200;BME280;57587;55.688;37.600;2023-01-25T03:39:04;100912.88;;;2.38;56.91
70200;BME280;57587;55.688;37.600;2023-01-25T03:41:37;100908.47;;;2.39;57.24
70200;BME280;57587;55.688;37.600;2023-01-25T03:44:08;100896.19;;;2.38;56.96
70200;BME280;57587;55.688;37.600;2023-01-25T03:46:38;100913.56;;;2.42;56.80
70200;BME280;57587;55.688;37.600;2023-01-25T03:49:06;100917.69;;;2.46;56.63
70200;BME280;57587;55.688;37.600;2023-01-25T03:51:33;100922.00;;;2.47;56.71
70200;BME280;57587;55.688;37.600;2023-01-25T03:54:02;100924.78;;;2.45;57.33
70200;BME280;57587;55.688;37.600;2023-01-25T03:56:32;100916.00;;;2.45;57.44
70200;BME280;57587;55.688;37.600;2023-01-25T03:59:05;100914.94;;;2.47;57.29
70200;BME280;57587;55.688;37.600;2023-01-25T04:01:33;100907.19;;;2.44;57.39
70200;BME280;57587;55.688;37.600;2023-01-25T04:04:01;100916.94;;;2.44;57.69
70200;BME280;57587;55.688;37.600;2023-01-25T04:06:29;100923.72;;;2.48;57.60
70200;BME280;57587;55.688;37.600;2023-01-25T04:08:56;100922.22;;;2.44;57.50
70200;BME280;57587;55.688;37.600;2023-01-25T04:11:25;100923.94;;;2.45;57.72
70200;BME280;57587;55.688;37.600;2023-01-25T04:13:53;100923.81;;;2.46;57.58
70200;BME280;57587;55.688;37.600;2023-01-25T04:16:24;100918.44;;;2.48;57.72
70200;BME280;57587;55.688;37.600;2023-01-25T04:19:22;100916.53;;;2.50;57.58
70200;BME280;57587;55.688;37.600;2023-01-25T04:21:49;100912.41;;;2.46;57.28
70200;BME280;57587;55.688;37.600;2023-01-25T04:24:17;100908.28;;;2.42;57.44
70200;BME280;57587;55.688;37.600;2023-01-25T04:26:44;100908.56;;;2.37;57.50
70200;BME280;57587;55.688;37.600;2023-01-25T04:29:11;100898.09;;;2.36;57.60
70200;BME280;57587;55.688;37.600;2023-01-25T04:31:39;100907.31;;;2.43;57.38
70200;BME280;57587;55.688;37.600;2023-01-25T04:34:06;100914.28;;;2.44;57.44
70200;BME280;57587;55.688;37.600;2023-01-25T04:36:33;100912.69;;;2.41;57.53
70200;BME280;57587;55.688;37.600;2023-01-25T04:39:00;100915.13;;;2.44;57.29
70200;BME280;57587;55.688;37.600;2023-01-25T04:41:28;100912.88;;;2.38;57.40
70200;BME280;57587;55.688;37.600;2023-01-25T04:43:56;100908.66;;;2.36;57.52
70200;BME280;57587;55.688;37.600;2023-01-25T04:46:24;100915.25;;;2.43;57.02
70200;BME280;57587;55.688;37.600;2023-01-25T04:48:52;100920.72;;;2.40;57.33
70200;BME280;57587;55.688;37.600;2023-01-25T04:51:19;100922.06;;;2.33;57.17
70200;BME280;57587;55.688;37.600;2023-01-25T04:53:46;100922.91;;;2.33;57.25
70200;BME280;57587;55.688;37.600;2023-01-25T04:56:14;100932.81;;;2.29;57.64
70200;BME280;57587;55.688;37.600;2023-01-25T04:58:46;100926.78;;;2.27;57.36
70200;BME280;57587;55.688;37.600;2023-01-25T05:01:14;100927.44;;;2.31;57.59
70200;BME280;57587;55.688;37.600;2023-01-25T05:03:42;100926.47;;;2.32;57.07
70200;BME280;57587;55.688;37.600;2023-01-25T05:06:19;100922.16;;;2.31;57.59
70200;BME280;57587;55.688;37.600;2023-01-25T05:08:46;100921.50;;;2.27;57.01
70200;BME280;57587;55.688;37.600;2023-01-25T05:11:13;100925.09;;;2.26;57.29
70200;BME280;57587;55.688;37.600;2023-01-25T05:14:01;100926.13;;;2.24;57.20
70200;BME280;57587;55.688;37.600;2023-01-25T05:16:31;100914.94;;;2.20;57.16
70200;BME280;57587;55.688;37.600;2023-01-25T05:18:59;100926.41;;;2.19;57.51
70200;BME280;57587;55.688;37.600;2023-01-25T05:21:42;100924.81;;;2.17;57.48
70200;BME280;57587;55.688;37.600;2023-01-25T05:24:29;100924.16;;;2.13;57.26
70200;BME280;57587;55.688;37.600;2023-01-25T05:27:00;100933.41;;;2.06;57.17
70200;BME280;57587;55.688;37.600;2023-01-25T05:29:52;100930.41;;;1.98;57.73
70200;BME280;57587;55.688;37.600;2023-01-25T05:32:25;100917.59;;;1.92;57.16
70200;BME280;57587;55.688;37.600;2023-01-25T05:34:52;100920.59;;;1.85;57.25
70200;BME280;57587;55.688;37.600;2023-01-25T05:37:20;100930.25;;;1.87;57.33
70200;BME280;57587;55.688;37.600;2023-01-25T05:39:55;100929.59;;;1.83;57.22
70200;BME280;57587;55.688;37.600;2023-01-25T05:42:23;100934.84;;;1.83;57.52
70200;BME280;57587;55.688;37.600;2023-01-25T05:44:50;100927.97;;;1.80;57.37
70200;BME280;57587;55.688;37.600;2023-01-25T05:47:18;100928.13;;;1.92;58.22
70200;BME280;57587;55.688;37.600;2023-01-25T05:49:45;100921.09;;;1.92;56.77
70200;BME280;57587;55.688;37.600;2023-01-25T05:52:19;100910.03;;;1.85;57.30
70200;BME280;57587;55.688;37.600;2023-01-25T05:54:47;100926.06;;;1.97;56.86
70200;BME280;57587;55.688;37.600;2023-01-25T05:57:15;100918.34;;;1.94;56.45
70200;BME280;57587;55.688;37.600;2023-01-25T05:59:42;100912.41;;;1.90;56.49
70200;BME280;57587;55.688;37.600;2023-01-25T06:02:14;100907.50;;;1.84;57.33
70200;BME280;57587;55.688;37.600;2023-01-25T06:04:42;100914.97;;;1.77;56.78
70200;BME280;57587;55.688;37.600;2023-01-25T06:07:10;100917.31;;;1.82;56.82
70200;BME280;57587;55.688;37.600;2023-01-25T06:09:37;100920.53;;;1.87;56.36
70200;BME280;57587;55.688;37.600;2023-01-25T06:12:05;100924.00;;;1.88;56.85
70200;BME280;57587;55.688;37.600;2023-01-25T06:14:32;100925.31;;;1.95;56.08
70200;BME280;57587;55.688;37.600;2023-01-25T06:17:01;100926.00;;;1.98;55.81
70200;BME280;57587;55.688;37.600;2023-01-25T06:19:48;100928.63;;;1.98;55.76
70200;BME280;57587;55.688;37.600;2023-01-25T06:22:22;100920.97;;;1.94;55.86
70200;BME280;57587;55.688;37.600;2023-01-25T06:24:49;100920.03;;;1.95;56.64
70200;BME280;57587;55.688;37.600;2023-01-25T06:27:16;100916.72;;;2.05;56.23
70200;BME280;57587;55.688;37.600;2023-01-25T06:29:43;100919.00;;;2.12;56.62
70200;BME280;57587;55.688;37.600;2023-01-25T06:32:10;100916.34;;;2.12;56.28
70200;BME280;57587;55.688;37.600;2023-01-25T06:34:37;100917.00;;;2.15;56.05
70200;BME280;57587;55.688;37.600;2023-01-25T06:37:07;100903.78;;;2.15;55.95
70200;BME280;57587;55.688;37.600;2023-01-25T06:39:34;100908.13;;;2.16;55.62
70200;BME280;57587;55.688;37.600;2023-01-25T06:42:01;100920.59;;;2.14;56.07
70200;BME280;57587;55.688;37.600;2023-01-25T06:44:28;100924.34;;;2.10;55.63
70200;BME280;57587;55.688;37.600;2023-01-25T06:46:55;100919.38;;;2.05;55.72
70200;BME280;57587;55.688;37.600;2023-01-25T06:49:23;100922.56;;;2.11;56.08
70200;BME280;57587;55.688;37.600;2023-01-25T06:51:50;100916.53;;;2.08;56.59
70200;BME280;57587;55.688;37.600;2023-01-25T06:54:17;100916.16;;;2.15;56.54
70200;BME280;57587;55.688;37.600;2023-01-25T06:56:44;100919.53;;;2.17;55.98
70200;BME280;57587;55.688;37.600;2023-01-25T06:59:11;100932.84;;;2.15;55.89
70200;BME280;57587;55.688;37.600;2023-01-25T07:01:39;100928.50;;;2.14;55.70
70200;BME280;57587;55.688;37.600;2023-01-25T07:04:08;100924.91;;;2.15;56.22
70200;BME280;57587;55.688;37.600;2023-01-25T07:06:37;100930.41;;;2.12;55.33
70200;BME280;57587;55.688;37.600;2023-01-25T07:09:10;100932.38;;;2.08;55.93
70200;BME280;57587;55.688;37.600;2023-01-25T07:11:37;100926.91;;;2.12;56.21
70200;BME280;57587;55.688;37.600;2023-01-25T07:14:04;100936.44;;;2.14;56.07
70200;BME280;57587;55.688;37.600;2023-01-25T07:16:32;100938.88;;;2.03;55.82
70200;BME280;57587;55.688;37.600;2023-01-25T07:19:06;100926.00;;;1.98;56.37
70200;BME280;57587;55.688;37.600;2023-01-25T07:21:36;100924.00;;;2.02;56.15
70200;BME280;57587;55.688;37.600;2023-01-25T07:24:03;100926.72;;;2.15;55.57
70200;BME280;57587;55.688;37.600;2023-01-25T07:26:31;100922.66;;;2.09;55.66
70200;BME280;57587;55.688;37.600;2023-01-25T07:28:58;100922.47;;;2.12;55.53
70200;BME280;57587;55.688;37.600;2023-01-25T07:31:26;100918.88;;;2.13;55.72
70200;BME280;57587;55.688;37.600;2023-01-25T07:33:56;100917.66;;;2.19;56.07
70200;BME280;57587;55.688;37.600;2023-01-25T07:36:24;100915.47;;;2.25;55.73
70200;BME280;57587;55.688;37.600;2023-01-25T07:38:53;100919.72;;;2.28;55.79
70200;BME280;57587;55.688;37.600;2023-01-25T07:41:21;100915.38;;;2.27;56.10
70200;BME280;57587;55.688;37.600;2023-01-25T07:43:50;100917.81;;;2.30;55.95
70200;BME280;57587;55.688;37.600;2023-01-25T07:46:32;100924.72;;;2.33;55.88
70200;BME280;57587;55.688;37.600;2023-01-25T07:48:59;100926.41;;;2.34;55.69
70200;BME280;57587;55.688;37.600;2023-01-25T07:51:26;100927.56;;;2.15;56.08
70200;BME280;57587;55.688;37.600;2023-01-25T07:53:58;100912.88;;;1.97;56.71
70200;BME280;57587;55.688;37.600;2023-01-25T07:56:30;100911.75;;;1.87;56.80
70200;BME280;57587;55.688;37.600;2023-01-25T07:58:59;100908.53;;;1.81;57.12
70200;BME280;57587;55.688;37.600;2023-01-25T08:01:30;100908.28;;;1.86;57.20
70200;BME280;57587;55.688;37.600;2023-01-25T08:04:00;100911.09;;;1.83;57.20
70200;BME280;57587;55.688;37.600;2023-01-25T08:06:30;100911.19;;;1.81;57.27
70200;BME280;57587;55.688;37.600;2023-01-25T08:09:06;100904.50;;;1.76;57.62
70200;BME280;57587;55.688;37.600;2023-01-25T08:11:33;100907.50;;;1.70;57.92
70200;BME280;57587;55.688;37.600;2023-01-25T08:14:01;100906.28;;;1.90;57.64
70200;BME280;57587;55.688;37.600;2023-01-25T08:16:30;100918.91;;;1.99;57.35
70200;BME280;57587;55.688;37.600;2023-01-25T08:18:59;100905.91;;;1.96;57.45
70200;BME280;57587;55.688;37.600;2023-01-25T08:21:27;100900.97;;;2.04;57.42
70200;BME280;57587;55.688;37.600;2023-01-25T08:23:59;100902.13;;;2.00;57.58
70200;BME280;57587;55.688;37.600;2023-01-25T08:26:27;100899.78;;;1.95;57.82
70200;BME280;57587;55.688;37.600;2023-01-25T08:28:55;100907.22;;;2.03;57.71
70200;BME280;57587;55.688;37.600;2023-01-25T08:31:28;100907.66;;;2.10;57.82
70200;BME280;57587;55.688;37.600;2023-01-25T08:33:56;100912.28;;;2.20;57.52
70200;BME280;57587;55.688;37.600;2023-01-25T08:36:23;100911.13;;;2.24;57.51
70200;BME280;57587;55.688;37.600;2023-01-25T08:38:55;100897.38;;;2.19;57.10
70200;BME280;57587;55.688;37.600;2023-01-25T08:41:23;100900.25;;;2.29;57.20
70200;BME280;57587;55.688;37.600;2023-01-25T08:43:52;100899.81;;;2.22;56.88
70200;BME280;57587;55.688;37.600;2023-01-25T08:46:20;100902.06;;;2.28;57.13
70200;BME280;57587;55.688;37.600;2023-01-25T08:48:47;100899.34;;;2.30;57.45
70200;BME280;57587;55.688;37.600;2023-01-25T08:51:18;100894.50;;;2.37;57.19
70200;BME280;57587;55.688;37.600;2023-01-25T08:53:45;100887.16;;;2.42;57.16
70200;BME280;57587;55.688;37.600;2023-01-25T08:56:14;100876.78;;;2.39;56.46
70200;BME280;57587;55.688;37.600;2023-01-25T08:58:44;100877.69;;;2.38;56.73
70200;BME280;57587;55.688;37.600;2023-01-25T09:01:13;100873.56;;;2.34;56.53
70200;BME280;57587;55.688;37.600;2023-01-25T09:03:45;100864.88;;;2.31;56.67
70200;BME280;57587;55.688;37.600;2023-01-25T09:06:13;100872.47;;;2.23;56.72
70200;BME280;57587;55.688;37.600;2023-01-25T09:08:40;100862.41;;;2.16;56.89
70200;BME280;57587;55.688;37.600;2023-01-25T09:11:18;100857.66;;;2.21;57.10
70200;BME280;57587;55.688;37.600;2023-01-25T09:13:46;100854.00;;;2.23;57.33
70200;BME280;57587;55.688;37.600;2023-01-25T09:16:17;100850.00;;;2.30;56.52
70200;BME280;57587;55.688;37.600;2023-01-25T09:18:45;100845.28;;;2.36;56.90
70200;BME280;57587;55.688;37.600;2023-01-25T09:21:17;100840.28;;;2.31;55.81
70200;BME280;57587;55.688;37.600;2023-01-25T09:23:47;100846.06;;;2.23;56.33
70200;BME280;57587;55.688;37.600;2023-01-25T09:26:30;100845.16;;;2.10;56.39
70200;BME280;57587;55.688;37.600;2023-01-25T09:28:58;100838.75;;;2.14;56.24
70200;BME280;57587;55.688;37.600;2023-01-25T09:31:25;100837.13;;;2.12;56.35
70200;BME280;57587;55.688;37.600;2023-01-25T09:34:10;100834.19;;;2.16;56.58
70200;BME280;57587;55.688;37.600;2023-01-25T09:36:37;100831.06;;;2.24;56.66
70200;BME280;57587;55.688;37.600;2023-01-25T09:39:04;100823.47;;;2.32;56.31
70200;BME280;57587;55.688;37.600;2023-01-25T09:41:41;100822.03;;;2.41;56.16
70200;BME280;57587;55.688;37.600;2023-01-25T09:46:58;100809.13;;;2.09;56.90
70200;BME280;57587;55.688;37.600;2023-01-25T09:54:55;100788.78;;;2.11;57.25
70200;BME280;57587;55.688;37.600;2023-01-25T09:57:37;100795.63;;;2.14;57.25
70200;BME280;57587;55.688;37.600;2023-01-25T10:00:19;100790.00;;;2.05;57.54
70200;BME280;57587;55.688;37.600;2023-01-25T10:05:43;100789.59;;;1.84;58.60
70200;BME280;57587;55.688;37.600;2023-01-25T10:10:51;100782.38;;;1.74;59.06
70200;BME280;57587;55.688;37.600;2023-01-25T10:13:24;100780.91;;;1.82;58.63
70200;BME280;57587;55.688;37.600;2023-01-25T10:16:29;100768.69;;;1.81;58.05
70200;BME280;57587;55.688;37.600;2023-01-25T10:21:38;100758.03;;;1.83;58.26
70200;BME280;57587;55.688;37.600;2023-01-25T10:26:55;100763.22;;;1.84;58.09
70200;BME280;57587;55.688;37.600;2023-01-25T10:29:27;100762.19;;;1.73;58.19
70200;BME280;57587;55.688;37.600;2023-01-25T10:32:04;100769.00;;;1.63;58.36
70200;BME280;57587;55.688;37.600;2023-01-25T10:34:43;100766.47;;;1.61;58.24
70200;BME280;57587;55.688;37.600;2023-01-25T10:37:29;100766.06;;;1.67;58.40
70200;BME280;57587;55.688;37.600;2023-01-25T10:40:04;100769.28;;;1.72;58.16
70200;BME280;57587;55.688;37.600;2023-01-25T10:42:40;100757.16;;;1.82;57.57
70200;BME280;57587;55.688;37.600;2023-01-25T10:45:11;100762.84;;;1.76;57.24
70200;BME280;57587;55.688;37.600;2023-01-25T10:47:41;100758.63;;;1.74;57.34
70200;BME280;57587;55.688;37.600;2023-01-25T10:53:32;100754.97;;;1.62;56.36
70200;BME280;57587;55.688;37.600;2023-01-25T10:56:24;100748.16;;;1.72;56.61
70200;BME280;57587;55.688;37.600;2023-01-25T10:59:12;100745.31;;;1.75;56.19
70200;BME280;57587;55.688;37.600;2023-01-25T11:01:41;100740.81;;;1.77;56.04
70200;BME280;57587;55.688;37.600;2023-01-25T11:04:29;100734.56;;;1.78;55.96
70200;BME280;57587;55.688;37.600;2023-01-25T11:06:58;100735.88;;;1.58;55.86
70200;BME280;57587;55.688;37.600;2023-01-25T11:09:34;100725.00;;;1.63;56.54
70200;BME280;57587;55.688;37.600;2023-01-25T11:12:14;100716.22;;;1.77;55.79
70200;BME280;57587;55.688;37.600;2023-01-25T11:14:42;100717.53;;;1.70;55.61
70200;BME280;57587;55.688;37.600;2023-01-25T11:17:38;100719.69;;;1.77;55.43
70200;BME280;57587;55.688;37.600;2023-01-25T11:20:19;100719.59;;;1.79;54.72
70200;BME280;57587;55.688;37.600;2023-01-25T11:22:54;100717.00;;;1.65;54.68
70200;BME280;57587;55.688;37.600;2023-01-25T11:25:29;100710.16;;;1.48;55.11
70200;BME280;57587;55.688;37.600;2023-01-25T11:28:13;100708.72;;;1.56;55.46
70200;BME280;57587;55.688;37.600;2023-01-25T11:30:42;100706.94;;;1.57;55.29
70200;BME280;57587;55.688;37.600;2023-01-25T11:33:11;100697.97;;;1.59;55.40
70200;BME280;57587;55.688;37.600;2023-01-25T11:38:22;100686.38;;;1.62;54.84
70200;BME280;57587;55.688;37.600;2023-01-25T11:44:05;100687.81;;;1.53;56.11
70200;BME280;57587;55.688;37.600;2023-01-25T11:52:03;100680.50;;;1.71;54.82
70200;BME280;57587;55.688;37.600;2023-01-25T12:02:59;100676.06;;;1.45;55.46
70200;BME280;57587;55.688;37.600;2023-01-25T12:11:20;100680.94;;;1.51;54.82
70200;BME280;57587;55.688;37.600;2023-01-25T12:20:18;100672.59;;;1.30;55.72
70200;BME280;57587;55.688;37.600;2023-01-25T12:28:56;100672.47;;;1.19;56.36
70200;BME280;57587;55.688;37.600;2023-01-25T12:31:34;100663.72;;;1.18;55.90
70200;BME280;57587;55.688;37.600;2023-01-25T12:34:10;100665.84;;;1.26;56.43
70200;BME280;57587;55.688;37.600;2023-01-25T12:36:43;100668.94;;;1.32;56.51
70200;BME280;57587;55.688;37.600;2023-01-25T12:39:31;100666.47;;;1.44;55.69
70200;BME280;57587;55.688;37.600;2023-01-25T12:42:18;100659.97;;;1.49;55.64
70200;BME280;57587;55.688;37.600;2023-01-25T12:44:58;100665.88;;;1.53;55.50
70200;BME280;57587;55.688;37.600;2023-01-25T12:47:52;100656.81;;;1.57;55.24
70200;BME280;57587;55.688;37.600;2023-01-25T12:50:40;100646.63;;;1.65;54.95
70200;BME280;57587;55.688;37.600;2023-01-25T12:55:35;100639.69;;;1.77;55.41
70200;BME280;57587;55.688;37.600;2023-01-25T12:58:17;100642.97;;;1.80;54.84
70200;BME280;57587;55.688;37.600;2023-01-25T13:01:25;100637.06;;;1.77;55.21
70200;BME280;57587;55.688;37.600;2023-01-25T13:06:53;100635.75;;;1.70;55.18
70200;BME280;57587;55.688;37.600;2023-01-25T13:12:03;100640.38;;;1.66;55.03
70200;BME280;57587;55.688;37.600;2023-01-25T13:14:35;100629.47;;;1.58;55.60
70200;BME280;57587;55.688;37.600;2023-01-25T13:28:48;100616.00;;;1.63;55.44
70200;BME280;57587;55.688;37.600;2023-01-25T13:37:22;100600.22;;;1.48;56.75
70200;BME280;57587;55.688;37.600;2023-01-25T13:40:27;100587.78;;;1.50;56.61
70200;BME280;57587;55.688;37.600;2023-01-25T13:43:18;100583.84;;;1.30;57.20
70200;BME280;57587;55.688;37.600;2023-01-25T13:45:49;100580.31;;;1.30;57.44
70200;BME280;57587;55.688;37.600;2023-01-25T13:48:20;100578.38;;;1.33;57.37
70200;BME280;57587;55.688;37.600;2023-01-25T13:51:02;100577.97;;;1.40;57.56
70200;BME280;57587;55.688;37.600;2023-01-25T13:53:30;100553.97;;;1.30;57.64
70200;BME280;57587;55.688;37.600;2023-01-25T13:56:01;100568.06;;;1.16;58.18
70200;BME280;57587;55.688;37.600;2023-01-25T14:01:06;100547.97;;;1.28;58.06
70200;BME280;57587;55.688;37.600;2023-01-25T14:03:45;100546.91;;;1.30;57.97
70200;BME280;57587;55.688;37.600;2023-01-25T14:06:19;100545.34;;;1.28;58.03
70200;BME280;57587;55.688;37.600;2023-01-25T14:08:48;100537.88;;;1.07;58.35
70200;BME280;57587;55.688;37.600;2023-01-25T14:11:21;100546.72;;;1.06;58.99
70200;BME280;57587;55.688;37.600;2023-01-25T14:16:23;100539.44;;;0.83;59.44
70200;BME280;57587;55.688;37.600;2023-01-25T14:18:51;100539.44;;;0.83;59.55
70200;BME280;57587;55.688;37.600;2023-01-25T14:21:19;100543.78;;;0.84;59.36
70200;BME280;57587;55.688;37.600;2023-01-25T14:23:47;100543.28;;;0.91;59.51
70200;BME280;57587;55.688;37.600;2023-01-25T14:26:20;100540.66;;;0.91;59.34
70200;BME280;57587;55.688;37.600;2023-01-25T14:28:51;100544.66;;;0.70;60.24
70200;BME280;57587;55.688;37.600;2023-01-25T14:31:31;100544.28;;;0.62;60.09
70200;BME280;57587;55.688;37.600;2023-01-25T14:34:01;100537.88;;;0.66;60.48
70200;BME280;57587;55.688;37.600;2023-01-25T14:36:32;100535.59;;;0.74;60.06
70200;BME280;57587;55.688;37.600;2023-01-25T14:39:00;100539.00;;;0.62;59.81
70200;BME280;57587;55.688;37.600;2023-01-25T14:41:33;100531.59;;;0.54;60.39
70200;BME280;57587;55.688;37.600;2023-01-25T14:44:10;100525.88;;;0.48;60.72
70200;BME280;57587;55.688;37.600;2023-01-25T14:46:39;100536.69;;;0.43;60.53